Time,TemperatureF,DewpointF,PressureIn,WindDirection,WindDirectionDegrees,WindSpeedMPH,WindSpeedGustMPH,Humidity,HourlyPrecipIn,Conditions,Clouds,dailyrainin,SolarRadiationWatts/m^2,SoftwareType,DateUTC
2013-10-10 00:03:00,49.0,35.0,-100.00,SSW,199,2.0,4.0,59,0.00,,,0.00,0.000000,,2013-10-10 06:03:00,
2013-10-10 00:13:00,49.0,35.0,-100.00,SSW,199,2.0,4.0,59,0.00,,,0.00,0.000000,,2013-10-10 06:13:00,
2013-10-10 00:22:00,49.0,35.0,-100.00,SSW,199,2.0,4.0,59,0.00,,,0.00,0.000000,,2013-10-10 06:22:00,
2013-10-10 00:53:00,48.0,35.0,-100.00,WSW,243,1.0,5.0,61,0.00,,,0.00,0.000000,,2013-10-10 06:53:00,
2013-10-10 01:02:00,48.0,35.0,-100.00,WSW,243,1.0,5.0,61,0.00,,,0.00,0.000000,,2013-10-10 07:02:00,
2013-10-10 01:11:00,48.0,35.0,-100.00,WSW,243,1.0,5.0,61,0.00,,,0.00,0.000000,,2013-10-10 07:11:00,
2013-10-10 01:21:00,48.0,35.0,-100.00,WSW,243,1.0,5.0,61,0.00,,,0.00,0.000000,,2013-10-10 07:21:00,
2013-10-10 01:52:00,45.0,35.0,-100.00,WSW,250,0.0,3.0,67,0.00,,,0.00,0.000000,,2013-10-10 07:52:00,
2013-10-10 02:02:00,45.0,35.0,-100.00,WSW,250,0.0,3.0,67,0.00,,,0.00,0.000000,,2013-10-10 08:02:00,
2013-10-10 02:11:00,45.0,35.0,-100.00,WSW,250,0.0,3.0,67,0.00,,,0.00,0.000000,,2013-10-10 08:11:00,
2013-10-10 02:22:00,45.0,35.0,-100.00,WSW,250,0.0,3.0,67,0.00,,,0.00,0.000000,,2013-10-10 08:22:00,
2013-10-10 02:52:00,42.0,33.0,-100.00,SW,235,0.0,2.0,71,0.00,,,0.00,0.000000,,2013-10-10 08:52:00,
2013-10-10 03:02:00,42.0,33.0,-100.00,SW,235,0.0,2.0,71,0.00,,,0.00,0.000000,,2013-10-10 09:02:00,
2013-10-10 03:12:00,42.0,33.0,-100.00,SW,235,0.0,2.0,71,0.00,,,0.00,0.000000,,2013-10-10 09:12:00,
2013-10-10 03:22:00,42.0,33.0,-100.00,SW,235,0.0,2.0,71,0.00,,,0.00,0.000000,,2013-10-10 09:22:00,
2013-10-10 03:53:00,41.0,34.0,-100.00,SSE,160,2.0,5.0,76,0.00,,,0.00,0.000000,,2013-10-10 09:53:00,
2013-10-10 04:03:00,41.0,34.0,-100.00,SSE,160,2.0,5.0,76,0.00,,,0.00,0.000000,,2013-10-10 10:03:00,
2013-10-10 04:12:00,41.0,34.0,-100.00,SSE,160,2.0,5.0,76,0.00,,,0.00,0.000000,,2013-10-10 10:12:00,
2013-10-10 04:23:00,41.0,34.0,-100.00,SSE,160,2.0,5.0,76,0.00,,,0.00,0.000000,,2013-10-10 10:23:00,
2013-10-10 04:53:00,39.0,34.0,-100.00,SSW,208,2.0,3.0,81,0.00,,,0.00,0.000000,,2013-10-10 10:53:00,
2013-10-10 05:03:00,39.0,34.0,-100.00,SSW,208,2.0,3.0,81,0.00,,,0.00,0.000000,,2013-10-10 11:03:00,
2013-10-10 05:12:00,39.0,34.0,-100.00,SSW,208,2.0,3.0,81,0.00,,,0.00,0.000000,,2013-10-10 11:12:00,
2013-10-10 05:22:00,39.0,34.0,-100.00,SSW,208,2.0,3.0,81,0.00,,,0.00,0.000000,,2013-10-10 11:22:00,
2013-10-10 10:23:00,54.0,39.0,-100.00,SSE,165,5.0,9.0,56,0.00,,,0.00,226.000000,,2013-10-10 16:23:00,
2013-10-10 10:53:00,57.0,40.0,-100.00,SSE,168,5.0,9.0,52,0.00,,,0.00,287.000000,,2013-10-10 16:53:00,
2013-10-10 11:02:00,57.0,40.0,-100.00,SSE,168,5.0,9.0,52,0.00,,,0.00,287.000000,,2013-10-10 17:02:00,
2013-10-10 11:12:00,57.0,40.0,-100.00,SSE,168,5.0,9.0,52,0.00,,,0.00,287.000000,,2013-10-10 17:12:00,
2013-10-10 11:23:00,57.0,40.0,-100.00,SSE,168,5.0,9.0,52,0.00,,,0.00,287.000000,,2013-10-10 17:23:00,
2013-10-10 12:21:00,63.0,41.0,-100.00,South,169,5.0,11.0,45,0.00,,,0.00,464.000000,,2013-10-10 18:21:00,
2013-10-10 12:52:00,64.0,42.0,-100.00,South,171,4.0,10.0,45,0.00,,,0.00,437.000000,,2013-10-10 18:52:00,
2013-10-10 13:01:00,64.0,42.0,-100.00,South,171,4.0,10.0,45,0.00,,,0.00,437.000000,,2013-10-10 19:01:00,
2013-10-10 13:11:00,64.0,42.0,-100.00,South,171,4.0,10.0,45,0.00,,,0.00,437.000000,,2013-10-10 19:11:00,
2013-10-10 13:22:00,64.0,42.0,-100.00,South,171,4.0,10.0,45,0.00,,,0.00,437.000000,,2013-10-10 19:22:00,
2013-10-10 13:53:00,66.0,41.0,-100.00,SSE,162,7.0,13.0,40,0.00,,,0.00,604.000000,,2013-10-10 19:53:00,
2013-10-10 14:02:00,66.0,41.0,-100.00,SSE,162,7.0,13.0,40,0.00,,,0.00,604.000000,,2013-10-10 20:02:00,
2013-10-10 14:12:00,66.0,41.0,-100.00,SSE,162,7.0,13.0,40,0.00,,,0.00,604.000000,,2013-10-10 20:12:00,
2013-10-10 14:22:00,66.0,41.0,-100.00,SSE,162,7.0,13.0,40,0.00,,,0.00,604.000000,,2013-10-10 20:22:00,
2013-10-10 14:52:00,66.0,42.0,-100.00,SE,146,8.0,18.0,42,0.00,,,0.00,569.000000,,2013-10-10 20:52:00,
2013-10-10 15:03:00,66.0,42.0,-100.00,SE,146,8.0,18.0,42,0.00,,,0.00,569.000000,,2013-10-10 21:03:00,
2013-10-10 15:12:00,66.0,42.0,-100.00,SE,146,8.0,18.0,42,0.00,,,0.00,569.000000,,2013-10-10 21:12:00,
2013-10-10 15:22:00,66.0,42.0,-100.00,SE,146,8.0,18.0,42,0.00,,,0.00,569.000000,,2013-10-10 21:22:00,
2013-10-10 15:24:00,67.0,45.0,-100.00,SE,145,6.0,16.0,45,0.00,,,0.00,358.000000,,2013-10-10 21:24:00,
2013-10-10 15:54:00,67.0,45.0,-100.00,SE,145,6.0,16.0,45,0.00,,,0.00,358.000000,,2013-10-10 21:54:00,
2013-10-10 16:04:00,67.0,45.0,-100.00,SE,145,6.0,16.0,45,0.00,,,0.00,358.000000,,2013-10-10 22:04:00,
2013-10-10 16:13:00,67.0,45.0,-100.00,SE,145,6.0,16.0,45,0.00,,,0.00,358.000000,,2013-10-10 22:13:00,
2013-10-10 16:53:00,67.0,46.0,-100.00,SE,139,4.0,14.0,46,0.00,,,0.00,342.000000,,2013-10-10 22:53:00,
2013-10-10 17:03:00,67.0,46.0,-100.00,SE,139,4.0,14.0,46,0.00,,,0.00,342.000000,,2013-10-10 23:03:00,
2013-10-10 17:12:00,67.0,46.0,-100.00,SE,139,4.0,14.0,46,0.00,,,0.00,342.000000,,2013-10-10 23:12:00,
2013-10-10 17:23:00,67.0,46.0,-100.00,SE,139,4.0,14.0,46,0.00,,,0.00,342.000000,,2013-10-10 23:23:00,
2013-10-10 17:53:00,63.0,44.0,-100.00,SE,140,3.0,9.0,49,0.00,,,0.00,142.000000,,2013-10-10 23:53:00,
2013-10-10 18:02:00,63.0,44.0,-100.00,SE,140,3.0,9.0,49,0.00,,,0.00,142.000000,,2013-10-11 00:02:00,
2013-10-10 18:11:00,63.0,44.0,-100.00,SE,140,3.0,9.0,49,0.00,,,0.00,142.000000,,2013-10-11 00:11:00,
2013-10-10 18:21:00,63.0,44.0,-100.00,SE,140,3.0,9.0,49,0.00,,,0.00,142.000000,,2013-10-11 00:21:00,
2013-10-10 18:52:00,61.0,46.0,-100.00,SE,139,2.0,7.0,58,0.00,,,-99.99,23.000000,,2013-10-11 00:52:00,
2013-10-10 19:01:00,61.0,46.0,-100.00,SE,139,2.0,7.0,58,0.00,,,-99.99,23.000000,,2013-10-11 01:01:00,
2013-10-10 19:11:00,61.0,46.0,-100.00,SE,139,2.0,7.0,58,0.00,,,-99.99,23.000000,,2013-10-11 01:11:00,
2013-10-10 19:22:00,61.0,46.0,-100.00,SE,139,2.0,7.0,58,0.00,,,-99.99,23.000000,,2013-10-11 01:22:00,
2013-10-10 19:52:00,57.0,47.0,-100.00,SSE,156,2.0,5.0,68,0.00,,,-99.99,0.000000,,2013-10-11 01:52:00,
2013-10-10 20:02:00,57.0,47.0,-100.00,SSE,156,2.0,5.0,68,0.00,,,-99.99,0.000000,,2013-10-11 02:02:00,
2013-10-10 20:12:00,57.0,47.0,-100.00,SSE,156,2.0,5.0,68,0.00,,,-99.99,0.000000,,2013-10-11 02:12:00,
2013-10-10 20:22:00,57.0,47.0,-100.00,SSE,156,2.0,5.0,68,0.00,,,-99.99,0.000000,,2013-10-11 02:22:00,
2013-10-10 20:52:00,57.0,48.0,-100.00,SSE,160,2.0,6.0,73,0.00,,,0.00,0.000000,,2013-10-11 02:52:00,
2013-10-10 21:02:00,57.0,48.0,-100.00,SSE,160,2.0,6.0,73,0.00,,,0.00,0.000000,,2013-10-11 03:02:00,
2013-10-10 21:11:00,57.0,48.0,-100.00,SSE,160,2.0,6.0,73,0.00,,,0.00,0.000000,,2013-10-11 03:11:00,
2013-10-10 21:23:00,57.0,48.0,-100.00,SSE,160,2.0,6.0,73,0.00,,,0.00,0.000000,,2013-10-11 03:23:00,
2013-10-10 21:24:00,54.0,49.0,-100.00,SE,128,2.0,7.0,84,0.00,,,-99.99,0.000000,,2013-10-11 03:24:00,
2013-10-10 21:54:00,54.0,49.0,-100.00,SE,128,2.0,7.0,84,0.00,,,-99.99,0.000000,,2013-10-11 03:54:00,
2013-10-10 22:04:00,54.0,49.0,-100.00,SE,128,2.0,7.0,84,0.00,,,-99.99,0.000000,,2013-10-11 04:04:00,
2013-10-10 22:13:00,54.0,49.0,-100.00,SE,128,2.0,7.0,84,0.00,,,-99.99,0.000000,,2013-10-11 04:13:00,
2013-10-10 22:53:00,54.0,52.0,-100.00,ENE,64,1.0,6.0,94,0.00,,,-99.99,0.000000,,2013-10-11 04:53:00,
2013-10-10 23:03:00,54.0,52.0,-100.00,ENE,64,1.0,6.0,94,0.00,,,-99.99,0.000000,,2013-10-11 05:03:00,
2013-10-10 23:13:00,54.0,52.0,-100.00,ENE,64,1.0,6.0,94,0.00,,,-99.99,0.000000,,2013-10-11 05:13:00,
2013-10-10 23:23:00,54.0,52.0,-100.00,ENE,64,1.0,6.0,94,0.00,,,-99.99,0.000000,,2013-10-11 05:23:00,
2013-10-10 23:52:00,52.0,51.0,-100.00,NNW,345,2.0,4.0,95,0.00,,,0.00,0.000000,,2013-10-11 05:52:00,